Time;durP1;ratioP1;P1;durP2;ratioP2;P2;SDS_P1;SDS_P2;PMS_P1;PMS_P2;Temp;Humidity;BMP_temperature;BMP_pressure;BME280_temperature;BME280_humidity;BME280_pressure;Samples;Min_cycle;Max_cycle;Signal;HPM_P1;HPM_P2
2022/05/28 00:03:19;;;;;;;3.70;3.00;;;17.40;90.60;;;;;;10442298;28;20731;-79
2022/05/28 00:08:21;;;;;;;4.93;4.07;;;17.30;91.40;;;;;;10437231;22;20598;-82
2022/05/28 00:13:24;;;;;;;5.20;4.60;;;17.40;92.30;;;;;;10397431;28;20203;-83
2022/05/28 00:18:28;;;;;;;4.40;4.00;;;17.40;92.30;;;;;;10399978;28;20249;-84
2022/05/28 00:23:30;;;;;;;3.97;3.53;;;17.30;92.50;;;;;;10415582;28;20703;-82
2022/05/28 00:28:32;;;;;;;5.20;4.70;;;17.30;92.70;;;;;;10398286;28;20218;-80
2022/05/28 00:33:36;;;;;;;5.20;4.70;;;17.30;93.20;;;;;;10408252;28;20194;-81
2022/05/28 00:38:39;;;;;;;5.03;4.50;;;17.20;94.60;;;;;;10405827;28;20241;-81
2022/05/28 00:43:44;;;;;;;8.40;6.40;;;17.00;95.60;;;;;;10407167;28;20275;-80
2022/05/28 00:48:51;;;;;;;5.00;4.60;;;16.70;96.50;;;;;;10394406;28;20202;-84
2022/05/28 00:53:56;;;;;;;5.63;4.90;;;16.30;94.90;;;;;;10412103;28;20229;-83
2022/05/28 00:58:59;;;;;;;8.03;4.90;;;16.20;97.80;;;;;;10411431;28;20210;-83
2022/05/28 01:04:12;;;;;;;5.90;5.27;;;16.10;95.30;;;;;;10411584;28;20225;-82
2022/05/28 01:09:22;;;;;;;10.10;5.90;;;16.00;97.80;;;;;;10405986;28;20237;-82
2022/05/28 01:14:29;;;;;;;5.30;4.80;;;16.10;98.20;;;;;;10394437;28;20689;-82
2022/05/28 01:19:47;;;;;;;5.50;4.93;;;16.00;98.20;;;;;;10398802;28;20289;-83
2022/05/28 01:24:58;;;;;;;6.60;5.50;;;16.10;97.60;;;;;;10414445;28;20218;-81
2022/05/28 01:30:05;;;;;;;5.97;5.30;;;16.20;98.30;;;;;;10402975;28;20294;-82
2022/05/28 01:35:10;;;;;;;8.20;5.60;;;16.20;96.50;;;;;;10399564;28;20218;-81
2022/05/28 01:40:13;;;;;;;8.20;5.37;;;16.30;96.80;;;;;;10385761;28;20213;-83
2022/05/28 01:45:18;;;;;;;5.97;4.50;;;16.40;95.80;;;;;;10398660;28;20222;-82
2022/05/28 01:50:25;;;;;;;4.40;4.00;;;16.40;92.80;;;;;;10413698;28;20267;-81
2022/05/28 01:55:29;;;;;;;6.73;4.70;;;16.30;92.50;;;;;;10411613;28;20221;-81
2022/05/28 02:00:32;;;;;;;8.57;4.57;;;16.30;93.40;;;;;;10407115;28;20206;-82
2022/05/28 02:05:34;;;;;;;4.13;3.70;;;16.30;93.10;;;;;;10402833;28;20244;-81
2022/05/28 02:10:41;;;;;;;4.83;4.40;;;16.20;91.90;;;;;;10412090;28;20248;-82
2022/05/28 02:15:47;;;;;;;7.97;3.90;;;16.20;91.00;;;;;;10412852;28;20221;-82
2022/05/28 02:20:59;;;;;;;6.87;4.10;;;16.20;90.60;;;;;;10417467;28;20626;-82
2022/05/28 02:26:07;;;;;;;4.77;3.73;;;16.10;90.50;;;;;;10407911;28;20260;-81
2022/05/28 02:31:16;;;;;;;4.87;3.47;;;16.20;90.60;;;;;;10416770;28;20209;-82
2022/05/28 02:36:19;;;;;;;5.13;3.37;;;16.20;89.50;;;;;;10422015;28;20217;-82
2022/05/28 02:41:22;;;;;;;7.33;3.40;;;16.10;86.30;;;;;;10406933;28;20284;-82
2022/05/28 02:46:26;;;;;;;6.83;3.10;;;15.90;86.40;;;;;;10415160;28;20271;-82
2022/05/28 02:51:28;;;;;;;7.90;4.20;;;15.90;86.30;;;;;;10411392;28;20203;-82
2022/05/28 02:56:30;;;;;;;7.80;4.30;;;15.80;88.80;;;;;;10407308;28;20304;-83
2022/05/28 03:01:34;;;;;;;11.77;4.30;;;15.80;88.50;;;;;;10417760;28;20208;-81
2022/05/28 03:06:37;;;;;;;6.83;4.23;;;15.80;89.10;;;;;;10422747;28;20229;-82
2022/05/28 03:11:40;;;;;;;6.97;3.47;;;15.80;83.60;;;;;;10411362;28;20566;-81
2022/05/28 03:16:43;;;;;;;8.13;4.20;;;15.60;86.60;;;;;;10427237;28;20603;-82
2022/05/28 03:21:46;;;;;;;4.87;3.57;;;15.60;85.60;;;;;;10420146;28;20202;-82
2022/05/28 03:26:48;;;;;;;7.83;3.27;;;15.50;85.00;;;;;;10401614;28;20340;-80
2022/05/28 03:31:51;;;;;;;8.23;3.20;;;15.50;84.20;;;;;;10413187;28;20641;-81
2022/05/28 03:36:53;;;;;;;5.10;3.80;;;15.50;82.50;;;;;;10416632;28;20248;-80
2022/05/28 03:41:55;;;;;;;9.37;3.67;;;15.30;81.20;;;;;;10408329;28;20284;-81
2022/05/28 03:47:00;;;;;;;4.63;2.97;;;15.30;82.60;;;;;;10401959;28;20283;-81
2022/05/28 03:52:03;;;;;;;7.47;3.33;;;15.30;85.80;;;;;;10421963;28;20197;-81
2022/05/28 03:57:09;;;;;;;7.20;3.47;;;15.30;84.00;;;;;;10405981;28;20249;-82
2022/05/28 04:02:13;;;;;;;9.07;3.77;;;15.20;84.70;;;;;;10395708;28;20202;-81
2022/05/28 04:07:15;;;;;;;5.53;3.10;;;15.30;81.90;;;;;;10397368;28;20639;-81
2022/05/28 04:12:17;;;;;;;4.23;3.47;;;15.20;83.40;;;;;;10404934;28;20206;-79
2022/05/28 04:17:21;;;;;;;5.90;3.10;;;15.20;83.40;;;;;;10395576;28;20709;-79
2022/05/28 04:22:23;;;;;;;9.40;4.10;;;15.20;83.20;;;;;;10410344;28;20245;-81
2022/05/28 04:27:25;;;;;;;9.30;3.97;;;15.10;83.10;;;;;;10383032;28;20218;-79
2022/05/28 04:32:29;;;;;;;6.10;3.40;;;15.20;82.90;;;;;;10412928;28;20230;-79
2022/05/28 04:37:31;;;;;;;5.37;3.30;;;15.00;82.20;;;;;;10405708;28;20263;-83
2022/05/28 04:42:33;;;;;;;4.63;2.83;;;15.00;82.80;;;;;;10401414;28;20657;-80
2022/05/28 04:47:37;;;;;;;4.23;3.00;;;15.00;85.00;;;;;;10408984;28;20690;-80
2022/05/28 04:52:39;;;;;;;9.77;4.00;;;15.00;81.10;;;;;;10404502;28;20190;-81
2022/05/28 04:57:41;;;;;;;7.93;2.97;;;15.00;80.40;;;;;;10400502;28;20310;-82
2022/05/28 05:02:45;;;;;;;7.20;2.80;;;15.00;85.10;;;;;;10406043;28;20701;-82
2022/05/28 05:07:47;;;;;;;6.90;3.57;;;15.10;84.00;;;;;;10420605;28;20317;-82
2022/05/28 05:12:49;;;;;;;6.70;3.10;;;15.00;81.30;;;;;;10410889;28;20281;-82
2022/05/28 05:17:53;;;;;;;4.73;3.53;;;15.10;80.80;;;;;;10407826;28;20261;-82
2022/05/28 05:22:55;;;;;;;4.00;2.80;;;15.20;82.80;;;;;;10419758;28;20218;-80
2022/05/28 05:27:57;;;;;;;9.80;3.23;;;15.30;81.90;;;;;;10405580;28;20260;-82
2022/05/28 05:33:01;;;;;;;5.20;3.20;;;15.30;80.90;;;;;;10412123;28;20197;-82
2022/05/28 05:38:06;;;;;;;7.13;2.80;;;15.30;81.50;;;;;;10401111;28;20233;-80
2022/05/28 05:43:08;;;;;;;13.43;3.50;;;15.30;82.00;;;;;;10398403;28;20313;-82
2022/05/28 05:48:11;;;;;;;10.60;3.67;;;15.40;79.60;;;;;;10408773;28;20697;-82
2022/05/28 05:53:14;;;;;;;6.23;3.20;;;15.40;79.50;;;;;;10407802;28;20233;-82
2022/05/28 05:58:16;;;;;;;6.97;2.67;;;15.40;81.10;;;;;;10406934;28;20249;-81
2022/05/28 06:03:20;;;;;;;5.83;3.10;;;15.40;82.20;;;;;;10401845;28;20226;-81
2022/05/28 06:08:22;;;;;;;8.40;3.30;;;15.40;81.50;;;;;;10418484;28;20229;-82
2022/05/28 06:13:24;;;;;;;7.43;2.87;;;15.40;82.30;;;;;;10412468;28;20619;-82
2022/05/28 06:18:28;;;;;;;6.20;2.87;;;15.50;81.30;;;;;;10422636;28;20753;-82
2022/05/28 06:23:31;;;;;;;4.03;2.73;;;15.60;80.50;;;;;;10421364;28;20759;-82
2022/05/28 06:28:34;;;;;;;9.00;3.47;;;15.60;78.00;;;;;;10416918;28;20715;-82
2022/05/28 06:33:38;;;;;;;6.20;2.90;;;15.60;78.40;;;;;;10418700;28;20194;-82
2022/05/28 06:38:40;;;;;;;7.10;2.63;;;15.70;74.30;;;;;;10395878;28;20622;-82
2022/05/28 06:43:43;;;;;;;3.87;2.10;;;15.90;73.70;;;;;;10400370;28;20562;-82
2022/05/28 06:48:46;;;;;;;3.03;2.27;;;16.10;74.60;;;;;;10402406;28;20202;-83
2022/05/28 06:53:50;;;;;;;3.23;2.37;;;16.30;71.60;;;;;;10401653;28;20630;-83
2022/05/28 06:58:53;;;;;;;4.97;2.60;;;16.30;70.00;;;;;;10417869;28;20206;-83
2022/05/28 07:03:56;;;;;;;3.63;2.33;;;16.50;70.90;;;;;;10413446;28;20237;-84
2022/05/28 07:08:59;;;;;;;4.63;2.57;;;16.70;71.20;;;;;;10416849;28;20260;-83
2022/05/28 07:14:01;;;;;;;5.90;3.03;;;16.90;70.70;;;;;;10406080;28;20222;-82
2022/05/28 07:19:04;;;;;;;3.13;2.23;;;17.00;69.20;;;;;;10414082;28;20194;-84
2022/05/28 07:24:07;;;;;;;2.67;1.90;;;17.20;70.80;;;;;;10397809;28;20271;-83
2022/05/28 07:29:09;;;;;;;4.73;2.50;;;17.40;70.00;;;;;;10419868;28;20276;-82
2022/05/28 07:34:13;;;;;;;4.93;2.10;;;17.60;68.80;;;;;;10417810;28;20214;-82
2022/05/28 07:39:15;;;;;;;2.87;2.40;;;17.80;68.20;;;;;;10422811;28;20198;-82
2022/05/28 07:44:17;;;;;;;3.53;2.20;;;18.00;66.80;;;;;;10408694;28;20349;-83
2022/05/28 07:49:21;;;;;;;2.90;1.63;;;18.10;65.30;;;;;;10401251;28;20198;-82
2022/05/28 07:54:23;;;;;;;4.43;2.80;;;18.50;65.80;;;;;;10415591;28;20218;-82
2022/05/28 07:59:25;;;;;;;6.10;2.47;;;18.90;63.30;;;;;;10419922;28;20201;-82
2022/05/28 08:04:29;;;;;;;2.80;1.73;;;19.20;64.00;;;;;;10422676;28;20635;-81
2022/05/28 08:09:31;;;;;;;2.13;1.90;;;19.70;63.00;;;;;;10403434;28;20202;-82
2022/05/28 08:14:33;;;;;;;1.90;1.60;;;20.00;58.10;;;;;;10402571;28;20218;-80
2022/05/28 08:19:37;;;;;;;2.13;1.47;;;20.40;58.70;;;;;;10413145;28;20204;-82
2022/05/28 08:24:39;;;;;;;2.83;1.80;;;20.80;57.90;;;;;;10420004;28;20257;-81
2022/05/28 08:29:41;;;;;;;2.60;2.20;;;21.30;56.40;;;;;;10421401;28;20292;-82
2022/05/28 08:34:44;;;;;;;1.90;1.70;;;21.90;58.10;;;;;;10414642;28;20222;-83
2022/05/28 08:39:47;;;;;;;3.17;1.83;;;22.40;57.30;;;;;;10401095;28;20206;-80
2022/05/28 08:44:51;;;;;;;3.73;1.90;;;22.80;55.90;;;;;;10379839;28;20236;-80
2022/05/28 08:49:55;;;;;;;3.30;1.93;;;23.10;56.00;;;;;;10356875;28;20209;-82
2022/05/28 08:55:02;;;;;;;4.73;2.70;;;23.60;54.60;;;;;;10377622;28;20218;-82
2022/05/28 09:00:10;;;;;;;4.03;2.00;;;23.10;56.40;;;;;;10401480;28;20210;-80
2022/05/28 09:05:23;;;;;;;1.70;1.60;;;23.20;56.80;;;;;;10357278;28;20302;-81
2022/05/28 09:10:29;;;;;;;2.80;2.00;;;23.10;57.10;;;;;;10378556;28;20678;-82
2022/05/28 09:15:33;;;;;;;5.17;2.30;;;23.30;54.70;;;;;;10402313;28;20606;-81
2022/05/28 09:20:40;;;;;;;2.93;1.53;;;23.20;54.90;;;;;;10390814;28;20248;-83
2022/05/28 09:25:46;;;;;;;3.00;2.47;;;23.60;54.40;;;;;;10374200;28;20227;-82
2022/05/28 09:30:55;;;;;;;3.07;2.03;;;23.80;54.20;;;;;;10375703;28;20208;-82
2022/05/28 09:36:08;;;;;;;2.40;1.70;;;24.10;54.70;;;;;;10391018;28;20221;-83
2022/05/28 09:41:27;;;;;;;3.90;1.87;;;24.50;52.50;;;;;;10398057;28;20764;-82
2022/05/28 09:46:33;;;;;;;5.23;2.23;;;24.30;53.60;;;;;;10371345;28;20272;-83
2022/05/28 09:51:36;;;;;;;2.70;1.97;;;23.60;54.40;;;;;;10381013;28;20713;-81
2022/05/28 09:56:39;;;;;;;3.23;2.00;;;23.60;52.80;;;;;;10379284;28;20207;-81
2022/05/28 10:01:52;;;;;;;1.80;1.70;;;24.80;53.50;;;;;;10369063;28;20689;-81
2022/05/28 10:06:59;;;;;;;4.50;2.03;;;26.10;51.90;;;;;;10349350;28;20246;-83
2022/05/28 10:12:03;;;;;;;2.80;1.70;;;25.90;51.20;;;;;;10372200;28;20209;-81
2022/05/28 10:17:06;;;;;;;3.20;1.53;;;25.60;51.80;;;;;;10371884;28;20214;-82
2022/05/28 10:22:17;;;;;;;4.13;1.80;;;25.30;51.00;;;;;;10373109;28;20206;-83
2022/05/28 10:27:28;;;;;;;2.70;1.90;;;24.70;50.20;;;;;;10370805;28;20585;-81
2022/05/28 10:32:35;;;;;;;3.90;1.87;;;24.00;52.10;;;;;;10354031;28;20198;-83
2022/05/28 10:37:39;;;;;;;4.47;2.17;;;23.10;52.60;;;;;;10366115;28;20762;-81
2022/05/28 10:42:41;;;;;;;3.67;2.43;;;22.50;53.30;;;;;;10347277;28;20199;-81
2022/05/28 10:48:16;;;;;;;2.73;2.10;;;22.00;53.90;;;;;;10343633;28;20222;-80
2022/05/28 10:53:29;;;;;;;3.10;1.97;;;21.80;53.50;;;;;;10351850;28;20214;-78
2022/05/28 10:58:54;;;;;;;4.60;1.50;;;21.60;54.90;;;;;;10347749;28;20250;-79
2022/05/28 11:04:22;;;;;;;2.93;2.03;;;21.60;53.00;;;;;;10324167;28;20309;-84
2022/05/28 11:09:38;;;;;;;3.83;1.80;;;21.50;52.80;;;;;;10332785;28;20206;-80
2022/05/28 11:15:03;;;;;;;3.87;1.50;;;21.50;53.00;;;;;;10353658;28;20250;-79
2022/05/28 11:20:20;;;;;;;2.57;2.37;;;21.60;52.30;;;;;;10372397;28;20729;-78
2022/05/28 11:25:33;;;;;;;2.80;2.10;;;21.60;51.90;;;;;;10321997;28;20240;-80
2022/05/28 11:30:40;;;;;;;3.10;1.80;;;21.50;53.40;;;;;;10347675;28;20689;-79
2022/05/28 11:35:45;;;;;;;3.40;2.07;;;21.30;52.20;;;;;;10356057;28;20223;-79
2022/05/28 11:40:57;;;;;;;3.07;1.80;;;21.10;52.40;;;;;;10359288;28;20202;-80
2022/05/28 11:46:05;;;;;;;2.37;1.60;;;21.00;51.00;;;;;;10375451;28;20222;-80
2022/05/28 11:51:31;;;;;;;2.93;2.00;;;20.90;52.40;;;;;;10355577;28;20195;-81
2022/05/28 11:56:34;;;;;;;2.97;1.70;;;20.90;51.20;;;;;;10377375;28;20253;-82
2022/05/28 12:01:45;;;;;;;3.57;1.67;;;20.90;52.10;;;;;;10369429;28;20201;-80
2022/05/28 12:07:02;;;;;;;3.20;1.40;;;20.90;52.10;;;;;;10371118;28;20218;-78
2022/05/28 12:12:18;;;;;;;3.40;1.70;;;20.90;51.20;;;;;;10367603;28;20267;-79
2022/05/28 12:17:27;;;;;;;2.50;1.77;;;20.90;52.80;;;;;;10368886;28;20427;-78
2022/05/28 12:22:32;;;;;;;1.97;1.70;;;21.20;53.80;;;;;;10367665;28;20234;-80
2022/05/28 12:27:42;;;;;;;3.77;1.60;;;21.40;53.00;;;;;;10366277;28;20702;-80
2022/05/28 12:32:48;;;;;;;2.20;1.90;;;21.50;51.90;;;;;;10367341;28;20538;-78
2022/05/28 12:37:58;;;;;;;2.43;1.70;;;21.40;52.60;;;;;;10369131;28;20690;-78
2022/05/28 12:43:12;;;;;;;3.57;2.07;;;21.20;53.70;;;;;;10365120;28;20253;-79
2022/05/28 12:48:20;;;;;;;2.67;1.57;;;21.20;54.60;;;;;;10372772;28;20219;-79
2022/05/28 12:53:22;;;;;;;4.27;2.20;;;21.20;53.10;;;;;;10362364;28;20194;-78
2022/05/28 12:58:30;;;;;;;2.63;1.90;;;21.20;54.10;;;;;;10359628;28;20215;-79
2022/05/28 13:03:37;;;;;;;2.40;1.70;;;21.20;53.20;;;;;;10368344;28;20205;-79
2022/05/28 13:08:48;;;;;;;2.37;1.87;;;21.10;53.20;;;;;;10368487;28;20321;-79
2022/05/28 13:14:38;;;;;;;2.13;1.70;;;21.00;53.50;;;;;;10374922;28;20285;-79
2022/05/28 13:20:03;;;;;;;2.60;1.63;;;20.80;55.50;;;;;;10374432;28;20206;-78
2022/05/28 13:25:32;;;;;;;4.63;2.40;;;20.70;53.20;;;;;;10372475;28;20224;-78
2022/05/28 13:30:38;;;;;;;3.30;1.80;;;20.40;54.30;;;;;;10373233;28;20221;-79
2022/05/28 13:35:44;;;;;;;6.43;1.90;;;20.30;54.80;;;;;;10372351;28;20222;-78
2022/05/28 13:40:48;;;;;;;4.03;2.20;;;20.10;54.10;;;;;;10371327;28;20245;-78
2022/05/28 13:45:59;;;;;;;2.43;1.73;;;20.00;54.70;;;;;;10372578;28;20215;-78
2022/05/28 13:51:03;;;;;;;1.90;1.67;;;19.90;52.10;;;;;;10372718;28;20237;-78
2022/05/28 13:56:08;;;;;;;2.97;1.50;;;19.90;52.60;;;;;;10370924;28;20585;-79
2022/05/28 14:01:24;;;;;;;2.30;1.80;;;19.80;51.70;;;;;;10372444;28;20293;-78
2022/05/28 14:06:30;;;;;;;1.77;1.40;;;19.70;51.50;;;;;;10370189;28;20690;-79
2022/05/28 14:11:37;;;;;;;1.80;1.70;;;19.70;52.90;;;;;;10373604;28;20261;-79
2022/05/28 14:16:44;;;;;;;5.37;1.63;;;19.80;52.60;;;;;;10370891;28;20324;-80
2022/05/28 14:21:51;;;;;;;1.57;1.47;;;19.90;52.40;;;;;;10371740;28;20206;-79
2022/05/28 14:26:56;;;;;;;5.93;2.00;;;20.00;52.90;;;;;;10377257;28;20258;-79
2022/05/28 14:32:01;;;;;;;2.07;1.70;;;20.00;51.80;;;;;;10380649;28;20550;-80
2022/05/28 14:37:04;;;;;;;1.60;1.50;;;20.00;52.60;;;;;;10380939;28;20245;-80
2022/05/28 14:42:08;;;;;;;4.00;1.83;;;20.00;52.20;;;;;;10378681;28;20278;-78
2022/05/28 14:47:23;;;;;;;3.93;2.10;;;20.00;52.10;;;;;;10378411;28;20734;-78
2022/05/28 14:52:32;;;;;;;2.23;1.77;;;19.90;52.30;;;;;;10377738;28;20241;-80
2022/05/28 14:57:37;;;;;;;2.30;1.70;;;20.00;53.90;;;;;;10380196;28;20276;-79
2022/05/28 15:02:41;;;;;;;5.70;1.77;;;20.00;52.20;;;;;;10378624;28;20202;-79
2022/05/28 15:07:49;;;;;;;2.77;1.73;;;20.10;50.50;;;;;;10379607;28;20234;-80
2022/05/28 15:12:52;;;;;;;1.67;1.53;;;20.10;50.90;;;;;;10380576;28;20249;-80
2022/05/28 15:17:55;;;;;;;1.93;1.43;;;20.00;50.00;;;;;;10378251;28;20211;-80
2022/05/28 15:22:57;;;;;;;1.53;1.23;;;20.00;51.00;;;;;;10377790;28;20209;-79
2022/05/28 15:28:00;;;;;;;3.30;1.67;;;20.00;50.20;;;;;;10379027;28;20222;-80
2022/05/28 15:33:04;;;;;;;2.93;1.60;;;19.90;49.20;;;;;;10379084;28;20213;-79
2022/05/28 15:38:07;;;;;;;4.83;3.20;;;19.90;49.90;;;;;;10377197;28;20269;-80
2022/05/28 15:43:10;;;;;;;1.60;1.50;;;20.00;51.30;;;;;;10361774;28;20268;-79
2022/05/28 15:48:14;;;;;;;4.50;2.20;;;20.00;50.70;;;;;;10377629;28;20308;-79
2022/05/28 15:53:16;;;;;;;1.70;1.60;;;19.90;50.60;;;;;;10377484;28;20202;-80
2022/05/28 15:58:24;;;;;;;5.07;2.00;;;19.80;50.50;;;;;;10378660;28;20255;-80
2022/05/28 16:03:27;;;;;;;2.10;1.60;;;19.70;51.10;;;;;;10377999;28;20675;-80
2022/05/28 16:08:42;;;;;;;3.27;1.40;;;19.70;51.60;;;;;;10376600;28;20246;-78
2022/05/28 16:13:45;;;;;;;4.07;1.80;;;19.60;52.10;;;;;;10375436;28;20210;-80
2022/05/28 16:18:50;;;;;;;4.03;1.53;;;19.50;52.30;;;;;;10380165;28;20260;-79
2022/05/28 16:23:52;;;;;;;2.83;1.53;;;19.40;52.70;;;;;;10389311;28;20202;-79
2022/05/28 16:28:55;;;;;;;2.00;1.50;;;19.30;54.10;;;;;;10377169;28;20264;-78
2022/05/28 16:34:00;;;;;;;4.00;1.97;;;19.30;53.40;;;;;;10358834;28;20199;-80
2022/05/28 16:39:02;;;;;;;2.30;1.80;;;19.20;54.20;;;;;;10373345;28;20194;-78
2022/05/28 16:44:06;;;;;;;2.13;1.50;;;19.30;52.70;;;;;;10372672;28;20222;-79
2022/05/28 16:49:10;;;;;;;6.40;1.73;;;19.20;52.70;;;;;;10374225;28;20218;-78
2022/05/28 16:54:12;;;;;;;1.57;1.47;;;19.20;52.70;;;;;;10373236;28;20218;-79
2022/05/28 16:59:17;;;;;;;2.47;2.10;;;19.20;52.20;;;;;;10373586;28;20253;-78
2022/05/28 17:04:21;;;;;;;3.47;1.90;;;19.20;52.70;;;;;;10373652;28;20277;-79
2022/05/28 17:09:23;;;;;;;1.67;1.57;;;19.00;51.50;;;;;;10372566;28;20568;-80
2022/05/28 17:14:26;;;;;;;1.60;1.50;;;19.00;52.90;;;;;;10373914;28;20237;-79
2022/05/28 17:19:31;;;;;;;2.90;1.80;;;19.00;50.20;;;;;;10374810;28;20194;-79
2022/05/28 17:24:33;;;;;;;1.50;1.30;;;18.80;51.90;;;;;;10371494;28;20225;-79
2022/05/28 17:29:37;;;;;;;2.53;1.80;;;18.80;52.60;;;;;;10371127;28;20265;-79
2022/05/28 17:34:44;;;;;;;2.40;1.77;;;18.70;53.20;;;;;;10370852;28;20226;-79
2022/05/28 17:39:46;;;;;;;1.57;1.20;;;18.70;54.20;;;;;;10371404;28;20294;-80
2022/05/28 17:44:49;;;;;;;2.40;1.77;;;18.60;53.60;;;;;;10372648;28;20218;-78
2022/05/28 17:49:54;;;;;;;2.50;1.60;;;18.60;55.10;;;;;;10372373;28;20194;-80
2022/05/28 17:54:56;;;;;;;2.17;1.60;;;18.60;53.60;;;;;;10371369;28;20218;-79
2022/05/28 17:59:59;;;;;;;2.87;2.00;;;18.50;54.80;;;;;;10374102;28;20210;-80
2022/05/28 18:05:05;;;;;;;3.00;2.10;;;18.40;54.20;;;;;;10382550;28;20272;-79
2022/05/28 18:10:08;;;;;;;2.40;2.20;;;18.40;56.10;;;;;;10372251;28;20206;-80
2022/05/28 18:15:12;;;;;;;2.13;2.00;;;18.40;54.80;;;;;;10372122;28;20591;-81
2022/05/28 18:20:26;;;;;;;2.53;1.60;;;18.30;55.10;;;;;;10389751;28;20195;-82
2022/05/28 18:25:29;;;;;;;2.97;1.90;;;18.20;56.60;;;;;;10387600;28;20225;-82
2022/05/28 18:30:31;;;;;;;4.20;2.07;;;18.20;57.80;;;;;;10386903;28;20226;-81
2022/05/28 18:35:38;;;;;;;2.20;2.00;;;18.10;56.40;;;;;;10387374;28;20221;-82
2022/05/28 18:40:43;;;;;;;2.27;1.93;;;18.10;58.70;;;;;;10372405;28;20365;-81
2022/05/28 18:45:47;;;;;;;2.13;1.93;;;18.10;57.90;;;;;;10370333;28;20210;-80
2022/05/28 18:50:59;;;;;;;6.00;2.70;;;18.00;57.70;;;;;;10378413;28;20213;-81
2022/05/28 18:56:01;;;;;;;6.07;5.47;;;18.00;58.50;;;;;;10363378;28;20211;-80
2022/05/28 19:01:06;;;;;;;3.67;3.23;;;18.00;59.00;;;;;;10365143;28;20202;-80
2022/05/28 19:06:10;;;;;;;2.23;2.13;;;18.00;58.90;;;;;;10372990;28;20218;-80
2022/05/28 19:11:16;;;;;;;2.50;2.30;;;18.00;57.00;;;;;;10348743;28;20206;-81
2022/05/28 19:16:21;;;;;;;2.40;2.20;;;17.90;58.40;;;;;;10370872;28;20215;-80
2022/05/28 19:21:24;;;;;;;2.37;2.17;;;17.90;62.00;;;;;;10377886;28;20217;-82
2022/05/28 19:31:51;;;;;;;6.23;2.70;;;17.90;59.70;;;;;;10375938;28;20198;-81
2022/05/28 19:36:54;;;;;;;2.40;2.30;;;17.80;59.10;;;;;;10377882;28;20218;-82
2022/05/28 19:41:58;;;;;;;2.37;2.10;;;17.90;59.60;;;;;;10375727;28;20205;-82
2022/05/28 19:47:00;;;;;;;3.07;2.77;;;17.70;60.90;;;;;;10376594;28;20748;-82
2022/05/28 19:52:08;;;;;;;4.00;3.60;;;17.40;61.10;;;;;;10374904;28;20204;-79
2022/05/28 19:57:13;;;;;;;3.13;2.93;;;17.30;60.10;;;;;;10359316;28;20236;-81
2022/05/28 20:02:17;;;;;;;4.03;2.80;;;17.10;61.50;;;;;;10369079;28;20197;-80
2022/05/28 20:07:21;;;;;;;3.47;2.77;;;16.90;61.20;;;;;;10383482;28;20268;-79
2022/05/28 20:12:23;;;;;;;4.87;3.23;;;16.70;62.20;;;;;;10400248;28;20198;-81
2022/05/28 20:17:27;;;;;;;3.00;2.70;;;16.40;64.30;;;;;;10365366;28;20672;-80
2022/05/28 20:22:31;;;;;;;6.53;4.17;;;16.40;63.70;;;;;;10373167;28;20218;-80
2022/05/28 20:27:33;;;;;;;5.30;4.63;;;16.30;63.40;;;;;;10391525;28;20703;-81
2022/05/28 20:32:38;;;;;;;6.10;5.03;;;16.20;64.60;;;;;;10375039;28;20298;-79
2022/05/28 20:37:42;;;;;;;5.80;4.07;;;16.10;65.40;;;;;;10382326;28;20930;-80
2022/05/28 20:42:44;;;;;;;3.03;2.83;;;16.10;65.50;;;;;;10377932;28;20210;-79
2022/05/28 20:47:49;;;;;;;4.83;3.43;;;16.00;66.10;;;;;;10384740;28;20229;-79
2022/05/28 20:52:53;;;;;;;4.30;3.23;;;15.90;66.50;;;;;;10386529;28;20987;-79
2022/05/28 20:57:56;;;;;;;3.07;2.60;;;15.90;67.00;;;;;;10375246;28;20710;-79
2022/05/28 21:02:59;;;;;;;2.83;2.50;;;16.00;66.90;;;;;;10369885;28;20203;-79
2022/05/28 21:08:02;;;;;;;2.60;2.40;;;16.10;66.50;;;;;;10388450;28;20325;-79
2022/05/28 21:13:05;;;;;;;5.30;3.50;;;16.10;67.60;;;;;;10389949;28;20199;-79
2022/05/28 21:18:10;;;;;;;2.53;2.33;;;16.00;67.50;;;;;;10386550;28;20226;-80
2022/05/28 21:23:13;;;;;;;3.67;2.53;;;16.10;70.00;;;;;;10376526;28;20210;-80
2022/05/28 21:33:35;;;;;;;7.20;2.50;;;16.20;69.40;;;;;;10367891;28;20762;-81
2022/05/28 21:38:39;;;;;;;2.77;2.57;;;16.20;68.70;;;;;;10378174;28;20296;-80
2022/05/28 21:43:41;;;;;;;2.83;2.40;;;16.20;69.10;;;;;;10392961;28;20256;-81
2022/05/28 21:48:43;;;;;;;3.37;3.07;;;16.20;69.00;;;;;;10392997;28;20691;-82
2022/05/28 21:53:52;;;;;;;3.40;2.70;;;16.20;68.20;;;;;;10413889;28;20198;-80
2022/05/28 21:58:55;;;;;;;2.80;2.57;;;16.10;70.20;;;;;;10375068;28;20194;-79
2022/05/28 22:03:59;;;;;;;2.77;2.57;;;16.10;70.00;;;;;;10376570;28;20205;-80
2022/05/28 22:09:06;;;;;;;3.00;2.67;;;16.10;70.10;;;;;;10378685;28;20309;-80
2022/05/28 22:14:08;;;;;;;2.90;2.40;;;16.00;68.90;;;;;;10384685;28;20242;-80
2022/05/28 22:19:23;;;;;;;2.20;2.00;;;16.10;70.60;;;;;;10387110;28;20277;-81
2022/05/28 22:24:29;;;;;;;2.57;2.10;;;16.20;69.10;;;;;;10401540;28;21003;-80
2022/05/28 22:29:31;;;;;;;3.20;2.70;;;16.20;69.20;;;;;;10379892;28;20229;-80
2022/05/28 22:34:37;;;;;;;2.67;2.47;;;16.20;69.80;;;;;;10385760;28;20301;-80
2022/05/28 22:39:40;;;;;;;4.13;2.30;;;16.20;69.50;;;;;;10370125;28;20207;-81
2022/05/28 22:50:04;;;;;;;2.53;2.33;;;16.00;70.40;;;;;;10391024;28;20234;-81
2022/05/28 22:55:08;;;;;;;2.60;2.40;;;16.00;71.20;;;;;;10400898;28;20218;-80
2022/05/28 23:00:11;;;;;;;3.23;2.40;;;16.10;69.50;;;;;;10392316;28;20206;-81
2022/05/28 23:05:18;;;;;;;6.67;2.53;;;16.20;69.70;;;;;;10390280;28;20221;-81
2022/05/28 23:10:21;;;;;;;2.70;2.50;;;16.10;69.80;;;;;;10383491;28;20252;-81
2022/05/28 23:15:24;;;;;;;2.50;2.03;;;16.00;70.50;;;;;;10404520;28;20233;-80
2022/05/28 23:20:31;;;;;;;2.80;2.00;;;16.10;72.00;;;;;;10391585;28;20212;-80
2022/05/28 23:25:49;;;;;;;2.00;1.90;;;16.10;69.80;;;;;;10369381;28;20230;-80
2022/05/28 23:30:52;;;;;;;3.47;2.77;;;16.10;71.40;;;;;;10399404;28;20651;-81
2022/05/28 23:35:54;;;;;;;2.77;2.50;;;16.10;72.10;;;;;;10372244;28;20305;-81
2022/05/28 23:40:58;;;;;;;2.23;2.10;;;16.20;71.70;;;;;;10387848;28;20206;-81
2022/05/28 23:46:03;;;;;;;2.43;1.80;;;16.10;71.10;;;;;;10380838;28;20257;-81
2022/05/28 23:51:05;;;;;;;2.57;2.37;;;16.20;76.10;;;;;;10386914;28;20256;-80
2022/05/28 23:56:14;;;;;;;3.63;2.60;;;16.10;78.70;;;;;;10398822;28;20709;-80
